Time;durP1;ratioP1;P1;durP2;ratioP2;P2;SDS_P1;SDS_P2;PMS_P1;PMS_P2;Temp;Humidity;BMP_temperature;BMP_pressure;BME280_temperature;BME280_humidity;BME280_pressure;Samples;Min_cycle;Max_cycle;Signal;HPM_P1;HPM_P2
2021/06/18 00:04:06;;;;;;;7.77;5.63;;;18.90;99.90;;;;;;5058491;23;20510;-90
2021/06/18 00:06:53;;;;;;;8.20;6.00;;;18.90;99.90;;;;;;5089907;23;20498;-89
2021/06/18 00:09:20;;;;;;;6.80;6.00;;;;;;;;;;5054106;23;20868;-92
2021/06/18 00:11:48;;;;;;;6.87;6.37;;;18.90;99.90;;;;;;5052020;28;20475;-91
2021/06/18 00:14:18;;;;;;;6.50;5.90;;;;;;;;;;5069029;23;20447;-89
2021/06/18 00:19:30;;;;;;;5.97;5.47;;;;;;;;;;5073980;23;20559;-92
2021/06/18 00:24:28;;;;;;;7.87;6.07;;;18.90;99.90;;;;;;5066703;23;20494;-90
2021/06/18 00:29:39;;;;;;;6.70;6.13;;;18.60;99.90;;;;;;5049747;23;20510;-91
2021/06/18 00:32:13;;;;;;;6.23;5.63;;;18.60;99.90;;;;;;5061364;23;20449;-91
2021/06/18 00:34:43;;;;;;;7.47;6.57;;;;;;;;;;5048323;28;20455;-91
2021/06/18 00:37:15;;;;;;;6.47;5.80;;;;;;;;;;5075095;23;20599;-90
2021/06/18 00:39:42;;;;;;;10.00;5.70;;;;;;;;;;5069715;28;20482;-91
2021/06/18 00:42:12;;;;;;;6.33;5.83;;;;;;;;;;5077364;23;20894;-91
2021/06/18 00:44:40;;;;;;;6.53;5.93;;;18.50;99.90;;;;;;5033279;28;20473;-91
2021/06/18 00:47:15;;;;;;;5.87;5.37;;;18.50;99.90;;;;;;5061994;23;20490;-92
2021/06/18 00:49:42;;;;;;;6.17;5.57;;;;;;;;;;5048864;28;20517;-92
2021/06/18 00:52:10;;;;;;;6.67;6.07;;;;;;;;;;5077882;23;20492;-92
2021/06/18 00:54:44;;;;;;;6.23;5.63;;;;;;;;;;5077466;23;20486;-90
2021/06/18 00:57:16;;;;;;;6.10;5.60;;;18.30;99.90;;;;;;5068754;23;20478;-90
2021/06/18 00:59:48;;;;;;;6.30;5.70;;;17.80;99.90;;;;;;5072205;23;20498;-91
2021/06/18 01:02:30;;;;;;;5.43;4.93;;;18.40;99.90;;;;;;5072471;28;20411;-89
2021/06/18 01:04:57;;;;;;;6.30;5.70;;;;;;;;;;5061065;23;20515;-91
2021/06/18 01:07:49;;;;;;;6.00;5.50;;;18.50;99.90;;;;;;5061248;23;20573;-93
2021/06/18 01:10:25;;;;;;;5.23;4.83;;;18.40;99.90;;;;;;5066473;23;20489;-91
2021/06/18 01:12:59;;;;;;;5.90;5.40;;;18.30;99.90;;;;;;5066002;23;20478;-91
2021/06/18 01:15:48;;;;;;;6.10;5.10;;;18.30;99.90;;;;;;5055328;23;20457;-90
2021/06/18 01:18:37;;;;;;;7.20;5.13;;;18.30;99.90;;;;;;5078381;23;20497;-90
2021/06/18 01:21:34;;;;;;;5.43;4.97;;;18.20;99.90;;;;;;5066789;23;20486;-90
2021/06/18 01:24:32;;;;;;;6.70;4.70;;;18.20;99.90;;;;;;5057314;23;20487;-90
2021/06/18 01:29:44;;;;;;;5.87;5.30;;;18.10;99.90;;;;;;5072135;23;20469;-91
2021/06/18 01:33:08;;;;;;;5.70;5.20;;;18.10;99.90;;;;;;5073749;28;20192;-93
2021/06/18 01:35:58;;;;;;;5.73;5.23;;;18.10;99.90;;;;;;5089940;23;20878;-90
2021/06/18 01:38:49;;;;;;;5.30;4.80;;;18.10;99.90;;;;;;5062475;23;21088;-91
2021/06/18 01:41:55;;;;;;;5.83;5.23;;;18.00;99.90;;;;;;5028242;28;20443;-92
2021/06/18 01:44:58;;;;;;;6.33;5.40;;;17.90;99.90;;;;;;5043475;23;20510;-92
2021/06/18 01:47:44;;;;;;;5.77;5.27;;;17.90;99.90;;;;;;5071689;23;20490;-92
2021/06/18 01:50:39;;;;;;;6.40;5.80;;;17.90;99.90;;;;;;5070666;23;20485;-90
2021/06/18 01:55:33;;;;;;;7.30;5.50;;;18.00;99.90;;;;;;5077000;23;20504;-90
2021/06/18 01:58:24;;;;;;;6.80;5.50;;;18.10;99.90;;;;;;5063593;23;20235;-91
2021/06/18 02:00:57;;;;;;;9.03;5.73;;;18.20;99.90;;;;;;5067186;23;20481;-90
2021/06/18 02:03:37;;;;;;;7.50;6.10;;;18.10;99.90;;;;;;5073652;23;20511;-91
2021/06/18 02:06:16;;;;;;;6.07;5.00;;;18.70;99.90;;;;;;5069929;23;20493;-90
2021/06/18 02:08:57;;;;;;;5.87;5.20;;;18.10;99.90;;;;;;5070553;23;20483;-90
2021/06/18 02:11:46;;;;;;;5.83;5.23;;;18.10;99.90;;;;;;5056533;28;20421;-92
2021/06/18 02:14:17;;;;;;;6.23;5.70;;;18.10;99.90;;;;;;5056156;28;20458;-91
2021/06/18 02:17:09;;;;;;;5.87;5.30;;;17.70;99.90;;;;;;5056427;28;20471;-91
2021/06/18 02:19:38;;;;;;;6.47;5.83;;;17.90;99.90;;;;;;5069608;23;20483;-91
2021/06/18 02:22:13;;;;;;;5.50;5.10;;;17.80;99.90;;;;;;5063966;23;20515;-91
2021/06/18 02:25:02;;;;;;;8.60;5.97;;;17.80;99.90;;;;;;5036352;28;20500;-89
2021/06/18 02:27:45;;;;;;;9.50;5.37;;;17.80;99.90;;;;;;5060440;23;20507;-92
2021/06/18 02:30:47;;;;;;;8.17;5.90;;;17.70;99.90;;;;;;5070045;23;20490;-89
2021/06/18 02:33:37;;;;;;;7.20;6.57;;;17.60;99.90;;;;;;5035621;28;20507;-91
2021/06/18 02:38:29;;;;;;;8.03;6.20;;;19.10;99.90;;;;;;5074096;23;20590;-90
2021/06/18 02:41:18;;;;;;;6.40;5.80;;;17.60;99.90;;;;;;5056844;28;20269;-91
2021/06/18 02:44:02;;;;;;;5.80;5.37;;;17.70;99.90;;;;;;5056423;28;20442;-91
2021/06/18 02:46:42;;;;;;;5.70;5.20;;;17.70;99.90;;;;;;5057535;23;20911;-90
2021/06/18 02:49:28;;;;;;;7.20;5.67;;;17.60;99.90;;;;;;5054858;28;20473;-90
2021/06/18 02:52:04;;;;;;;7.10;6.40;;;17.70;99.90;;;;;;5062504;23;20535;-90
2021/06/18 02:54:35;;;;;;;10.60;6.43;;;17.50;99.90;;;;;;5051351;28;20449;-92
2021/06/18 02:57:08;;;;;;;7.37;6.67;;;17.50;99.90;;;;;;5047464;28;20455;-91
2021/06/18 03:00:02;;;;;;;7.13;6.43;;;17.50;99.90;;;;;;5055806;28;20483;-90
2021/06/18 03:02:42;;;;;;;7.83;6.60;;;17.70;99.90;;;;;;5053661;28;20446;-91
2021/06/18 03:05:28;;;;;;;9.23;7.23;;;18.10;99.90;;;;;;5054329;28;20448;-93
2021/06/18 03:07:58;;;;;;;6.50;5.93;;;18.10;99.90;;;;;;5052369;28;20455;-90
2021/06/18 03:10:27;;;;;;;7.00;6.40;;;18.30;99.90;;;;;;5050320;28;20816;-91
2021/06/18 03:13:00;;;;;;;10.50;6.50;;;18.20;99.90;;;;;;5047468;28;20443;-91
2021/06/18 03:15:30;;;;;;;6.30;5.80;;;18.60;99.90;;;;;;5048062;28;20431;-91
2021/06/18 03:17:59;;;;;;;8.73;6.40;;;18.60;99.90;;;;;;5050673;28;20504;-92
2021/06/18 03:20:33;;;;;;;7.00;6.07;;;18.60;99.90;;;;;;5051014;28;20570;-92
2021/06/18 03:23:11;;;;;;;9.07;6.60;;;18.60;99.90;;;;;;5035474;28;20472;-91
2021/06/18 03:25:39;;;;;;;9.77;6.50;;;18.70;99.90;;;;;;5030455;28;20464;-92
2021/06/18 03:28:08;;;;;;;8.53;7.67;;;18.60;99.90;;;;;;5026931;28;20452;-92
2021/06/18 03:30:36;;;;;;;9.13;6.80;;;18.40;99.90;;;;;;5028396;28;20463;-90
2021/06/18 03:33:05;;;;;;;6.97;6.37;;;18.50;99.90;;;;;;5030584;28;20445;-93
2021/06/18 03:35:34;;;;;;;6.93;6.37;;;18.50;99.90;;;;;;5029957;28;20550;-91
2021/06/18 03:38:02;;;;;;;8.97;6.60;;;18.40;99.90;;;;;;5026388;28;20460;-91
2021/06/18 03:40:29;;;;;;;8.03;7.23;;;;;;;;;;5030330;28;20492;-93
2021/06/18 03:42:57;;;;;;;7.80;7.20;;;;;;;;;;5030402;28;20440;-93
2021/06/18 03:45:24;;;;;;;7.60;7.00;;;;;;;;;;5031243;28;20440;-91
2021/06/18 03:47:52;;;;;;;7.70;7.10;;;18.20;99.90;;;;;;5030617;28;20449;-91
2021/06/18 03:50:22;;;;;;;7.43;6.53;;;18.20;99.90;;;;;;5025939;28;20432;-92
2021/06/18 03:52:51;;;;;;;8.07;7.47;;;18.10;99.90;;;;;;5025374;28;21050;-93
2021/06/18 03:55:18;;;;;;;7.77;6.97;;;;;;;;;;5021406;28;20458;-91
2021/06/18 03:57:48;;;;;;;7.07;6.47;;;18.20;99.90;;;;;;5029646;28;20463;-92
2021/06/18 04:00:17;;;;;;;8.23;7.57;;;18.20;99.90;;;;;;5024454;28;20480;-92
2021/06/18 04:02:45;;;;;;;8.00;7.30;;;18.20;99.90;;;;;;5029820;28;20455;-94
2021/06/18 04:05:16;;;;;;;7.63;6.93;;;18.20;99.90;;;;;;5029722;28;20455;-92
2021/06/18 04:07:46;;;;;;;7.60;6.77;;;18.20;99.90;;;;;;5026517;28;20448;-91
2021/06/18 04:10:17;;;;;;;7.80;7.20;;;18.10;99.90;;;;;;5020792;28;20467;-92
2021/06/18 04:12:46;;;;;;;8.27;7.57;;;18.50;99.90;;;;;;5030117;28;20807;-92
2021/06/18 04:15:15;;;;;;;7.80;7.10;;;18.10;99.90;;;;;;5028063;28;20471;-92
2021/06/18 04:17:42;;;;;;;7.83;6.87;;;18.10;99.90;;;;;;4975682;28;20544;-91
2021/06/18 04:20:11;;;;;;;10.80;7.40;;;18.20;99.90;;;;;;5028535;28;20479;-93
2021/06/18 04:22:38;;;;;;;7.33;6.43;;;;;;;;;;5021832;28;20527;-93
2021/06/18 04:25:09;;;;;;;8.33;7.00;;;18.30;99.90;;;;;;5024569;28;20445;-92
2021/06/18 04:27:41;;;;;;;8.43;7.60;;;18.50;99.90;;;;;;5019241;28;20436;-91
2021/06/18 04:30:12;;;;;;;7.43;6.83;;;18.50;99.90;;;;;;5024376;28;20448;-93
2021/06/18 04:32:39;;;;;;;8.00;7.30;;;;;;;;;;5020348;28;20544;-92
2021/06/18 04:35:07;;;;;;;7.40;6.17;;;18.70;99.90;;;;;;5023413;28;20448;-92
2021/06/18 04:37:34;;;;;;;6.40;5.90;;;;;;;;;;5022434;28;20531;-93
2021/06/18 04:40:02;;;;;;;6.43;5.80;;;;;;;;;;5018856;28;20495;-92
2021/06/18 04:42:29;;;;;;;6.80;5.30;;;;;;;;;;5022334;28;20809;-94
2021/06/18 04:44:57;;;;;;;8.67;5.97;;;20.00;99.90;;;;;;5020680;28;20469;-93
2021/06/18 04:47:25;;;;;;;6.10;5.57;;;;;;;;;;5021030;28;20662;-91
2021/06/18 04:49:52;;;;;;;7.63;6.00;;;;;;;;;;5019412;28;20470;-92
2021/06/18 04:52:19;;;;;;;6.57;5.93;;;;;;;;;;5020838;28;20483;-94
2021/06/18 04:54:47;;;;;;;6.13;5.43;;;;;;;;;;5016836;28;20444;-91
2021/06/18 04:57:15;;;;;;;6.30;5.80;;;20.40;99.90;;;;;;5017409;28;20465;-93
2021/06/18 04:59:42;;;;;;;5.70;5.20;;;;;;;;;;5018426;28;20575;-93
2021/06/18 05:02:13;;;;;;;5.70;5.20;;;20.70;99.90;;;;;;5018562;28;20527;-93
2021/06/18 05:04:40;;;;;;;7.33;5.60;;;;;;;;;;5018761;28;20429;-91
2021/06/18 05:07:07;;;;;;;5.43;5.03;;;;;;;;;;5018877;28;20445;-90
2021/06/18 05:09:33;;;;;;;8.00;5.77;;;21.00;99.90;;;;;;5015020;28;20475;-91
2021/06/18 05:12:00;;;;;;;7.00;5.83;;;21.20;99.90;;;;;;5017348;28;20440;-94
2021/06/18 05:14:27;;;;;;;15.63;6.20;;;;;;;;;;5012794;28;20865;-92
2021/06/18 05:16:54;;;;;;;6.10;5.60;;;21.40;99.90;;;;;;5015769;28;20448;-93
2021/06/18 05:19:22;;;;;;;7.53;5.33;;;21.60;99.90;;;;;;5009627;28;20460;-91
2021/06/18 05:21:49;;;;;;;5.83;5.33;;;21.60;99.90;;;;;;5015751;28;20479;-93
2021/06/18 05:24:16;;;;;;;5.57;5.17;;;21.60;99.90;;;;;;5010842;28;20445;-93
2021/06/18 05:26:43;;;;;;;5.80;5.30;;;21.80;99.90;;;;;;5014730;28;20447;-92
2021/06/18 05:29:10;;;;;;;5.83;5.43;;;22.00;99.90;;;;;;5014737;28;20450;-91
2021/06/18 05:31:36;;;;;;;5.83;5.30;;;22.10;99.90;;;;;;5010025;28;20471;-91
2021/06/18 05:34:03;;;;;;;5.80;5.30;;;;;;;;;;5014261;28;20440;-92
2021/06/18 05:36:32;;;;;;;5.83;5.33;;;22.40;99.90;;;;;;5014669;28;20441;-93
2021/06/18 05:38:59;;;;;;;6.20;5.70;;;;;;;;;;5014669;28;20452;-93
2021/06/18 05:41:27;;;;;;;5.10;4.70;;;23.10;99.90;;;;;;5019423;28;20785;-93
2021/06/18 05:43:54;;;;;;;5.40;4.80;;;23.50;99.90;;;;;;5012974;28;20456;-92
2021/06/18 05:46:21;;;;;;;8.60;5.17;;;23.90;99.90;;;;;;4996570;28;20449;-93
2021/06/18 05:48:48;;;;;;;5.20;4.40;;;24.60;99.90;;;;;;4986190;28;20476;-92
2021/06/18 05:51:15;;;;;;;5.40;4.67;;;;;;;;;;4989815;28;20533;-91
2021/06/18 05:53:44;;;;;;;7.10;4.23;;;25.50;99.90;;;;;;4987819;28;20991;-93
2021/06/18 05:56:11;;;;;;;4.40;4.07;;;25.50;99.90;;;;;;4986651;28;20520;-93
2021/06/18 05:58:38;;;;;;;5.17;4.70;;;;;;;;;;4994812;28;20445;-93
2021/06/18 06:01:05;;;;;;;4.60;4.23;;;;;;;;;;4993074;28;20493;-90
2021/06/18 06:03:33;;;;;;;4.70;4.30;;;25.80;99.00;;;;;;4993351;28;20938;-93
2021/06/18 06:06:00;;;;;;;5.63;4.20;;;;;;;;;;4995218;28;20524;-91
2021/06/18 06:08:29;;;;;;;7.23;4.40;;;;;;;;;;4995558;28;20437;-94
2021/06/18 06:10:58;;;;;;;4.80;4.30;;;26.70;97.80;;;;;;4995012;28;20442;-94
2021/06/18 06:13:26;;;;;;;4.87;4.30;;;26.70;98.20;;;;;;4989275;28;20453;-93
2021/06/18 06:15:53;;;;;;;5.93;4.30;;;26.80;97.20;;;;;;4996311;28;20468;-94
2021/06/18 06:18:20;;;;;;;4.13;3.83;;;26.90;96.90;;;;;;4994206;28;20442;-95
2021/06/18 06:20:47;;;;;;;4.57;4.17;;;;;;;;;;4994691;28;20889;-92
2021/06/18 06:23:15;;;;;;;4.33;3.83;;;27.00;97.00;;;;;;4994769;28;20438;-92
2021/06/18 06:25:42;;;;;;;8.13;4.57;;;26.90;97.20;;;;;;4993640;28;20437;-93
2021/06/18 06:28:11;;;;;;;7.00;4.30;;;26.80;96.70;;;;;;4993818;28;20457;-93
2021/06/18 06:30:38;;;;;;;4.83;4.37;;;;;;;;;;4994568;28;20453;-93
2021/06/18 06:33:05;;;;;;;5.33;4.20;;;27.20;97.20;;;;;;4994220;28;20445;-92
2021/06/18 06:35:32;;;;;;;4.07;3.77;;;27.50;96.60;;;;;;4993097;28;20442;-92
2021/06/18 06:37:59;;;;;;;5.07;4.17;;;27.80;96.00;;;;;;4994173;28;20434;-93
2021/06/18 06:40:26;;;;;;;5.50;3.97;;;27.80;95.80;;;;;;4991650;28;20473;-94
2021/06/18 06:42:53;;;;;;;7.80;4.67;;;27.70;96.30;;;;;;4994149;28;20453;-92
2021/06/18 06:45:21;;;;;;;4.90;4.40;;;27.60;95.60;;;;;;4994689;28;20444;-94
2021/06/18 06:47:50;;;;;;;4.60;4.20;;;;;;;;;;4998425;28;20437;-93
2021/06/18 06:50:17;;;;;;;7.03;4.27;;;;;;;;;;4998304;28;20458;-94
2021/06/18 06:52:44;;;;;;;10.20;4.67;;;28.20;94.30;;;;;;5010940;28;20971;-95
2021/06/18 06:55:13;;;;;;;4.83;4.30;;;28.20;94.70;;;;;;5011917;28;20433;-94
2021/06/18 06:57:40;;;;;;;4.27;3.97;;;28.20;94.90;;;;;;5018121;28;20458;-94
2021/06/18 07:00:08;;;;;;;4.83;4.20;;;28.90;94.70;;;;;;5012482;28;20522;-93
2021/06/18 07:02:36;;;;;;;7.10;4.27;;;29.20;93.60;;;;;;5017923;28;20439;-93
2021/06/18 07:05:03;;;;;;;5.23;4.53;;;29.00;93.50;;;;;;5015486;28;20452;-94
2021/06/18 07:07:30;;;;;;;4.13;3.83;;;28.90;93.60;;;;;;5018281;28;20467;-93
2021/06/18 07:09:57;;;;;;;6.03;4.57;;;29.00;95.20;;;;;;5017464;28;20456;-92
2021/06/18 07:12:24;;;;;;;6.40;4.13;;;29.20;93.40;;;;;;5012458;28;20547;-92
2021/06/18 07:14:51;;;;;;;4.63;4.23;;;;;;;;;;5020141;28;20537;-95
2021/06/18 07:17:18;;;;;;;4.47;4.17;;;29.20;93.00;;;;;;5025002;28;20443;-96
2021/06/18 07:19:46;;;;;;;4.73;4.10;;;28.90;98.50;;;;;;5026226;28;20464;-92
2021/06/18 07:22:16;;;;;;;4.60;4.20;;;29.00;92.60;;;;;;5027681;28;20491;-91
2021/06/18 07:24:42;;;;;;;6.37;4.03;;;29.30;92.10;;;;;;4943214;29;20482;-92
2021/06/18 07:27:10;;;;;;;5.03;4.60;;;;;;;;;;4940532;29;20463;-92
2021/06/18 07:29:36;;;;;;;6.40;4.43;;;30.10;90.20;;;;;;4937239;29;20487;-93
2021/06/18 07:32:04;;;;;;;5.70;4.10;;;30.40;91.30;;;;;;4937432;29;20464;-94
2021/06/18 07:34:31;;;;;;;5.00;4.20;;;30.20;91.50;;;;;;4935943;29;20470;-93
2021/06/18 07:36:59;;;;;;;11.60;5.43;;;30.30;90.30;;;;;;4936650;29;20462;-96
2021/06/18 07:39:26;;;;;;;8.70;4.83;;;;;;;;;;4934316;29;20451;-92
2021/06/18 07:41:53;;;;;;;5.20;4.80;;;30.20;90.80;;;;;;4945927;28;20495;-93
2021/06/18 07:44:20;;;;;;;6.30;4.80;;;;;;;;;;5013301;28;20452;-95
2021/06/18 07:46:47;;;;;;;5.77;4.80;;;30.60;88.90;;;;;;5016231;28;20436;-93
2021/06/18 07:49:14;;;;;;;5.30;4.07;;;;;;;;;;5017697;28;20452;-92
2021/06/18 07:51:41;;;;;;;4.80;4.30;;;30.90;87.10;;;;;;5014706;28;20494;-92
2021/06/18 07:54:09;;;;;;;6.53;4.27;;;31.20;86.90;;;;;;5010369;28;20452;-92
2021/06/18 07:56:41;;;;;;;5.73;4.77;;;30.90;86.90;;;;;;5016395;28;20440;-93
2021/06/18 07:59:08;;;;;;;5.10;4.70;;;29.90;90.30;;;;;;5015822;28;20506;-93
2021/06/18 08:01:35;;;;;;;5.87;5.07;;;29.70;89.40;;;;;;5015679;28;20859;-93
2021/06/18 08:04:01;;;;;;;5.80;4.30;;;30.10;90.30;;;;;;5015517;28;20821;-94
2021/06/18 08:06:28;;;;;;;4.97;4.67;;;30.40;88.60;;;;;;5015711;28;20916;-93
2021/06/18 08:08:55;;;;;;;6.20;5.00;;;30.90;87.30;;;;;;5019613;28;20437;-90
2021/06/18 08:11:23;;;;;;;5.97;5.30;;;31.20;85.00;;;;;;5021929;28;20430;-93
2021/06/18 08:13:52;;;;;;;5.67;5.10;;;;;;;;;;5024519;28;20511;-92
2021/06/18 08:16:19;;;;;;;7.50;5.10;;;;;;;;;;5016835;28;20452;-92
2021/06/18 08:18:46;;;;;;;6.20;5.70;;;31.50;83.40;;;;;;5019212;28;20452;-94
2021/06/18 08:21:12;;;;;;;7.93;5.50;;;31.30;84.90;;;;;;5016004;28;20487;-92
2021/06/18 08:23:40;;;;;;;5.53;5.03;;;;;;;;;;5012644;28;20448;-94
2021/06/18 08:26:07;;;;;;;5.97;5.30;;;30.90;85.00;;;;;;5019682;28;20455;-94
2021/06/18 08:28:35;;;;;;;6.30;5.30;;;30.80;87.50;;;;;;5011078;28;20443;-90
2021/06/18 08:31:06;;;;;;;5.50;5.00;;;;;;;;;;5014756;28;20444;-92
2021/06/18 08:33:36;;;;;;;6.40;5.60;;;29.80;89.20;;;;;;5015885;28;20440;-93
2021/06/18 08:36:04;;;;;;;6.30;5.73;;;30.60;91.40;;;;;;5014735;28;20463;-90
2021/06/18 08:38:34;;;;;;;6.60;6.10;;;30.70;89.90;;;;;;5011599;28;20787;-91
2021/06/18 08:41:03;;;;;;;6.57;5.60;;;31.60;88.40;;;;;;5010593;28;20497;-92
2021/06/18 08:43:31;;;;;;;8.60;5.70;;;31.80;85.70;;;;;;5014481;28;20452;-91
2021/06/18 08:46:01;;;;;;;7.60;6.20;;;31.50;85.30;;;;;;5011154;28;20452;-94
2021/06/18 08:48:29;;;;;;;8.27;5.63;;;31.50;85.90;;;;;;5010196;28;20466;-91
2021/06/18 08:50:56;;;;;;;7.00;6.30;;;31.70;88.00;;;;;;5014753;28;20839;-93
2021/06/18 08:53:24;;;;;;;8.80;6.50;;;31.90;90.00;;;;;;5014196;28;20483;-93
2021/06/18 08:55:54;;;;;;;7.20;6.67;;;31.50;85.40;;;;;;5009651;28;20448;-92
2021/06/18 08:58:21;;;;;;;6.97;6.27;;;31.40;86.00;;;;;;5011806;28;20420;-92
2021/06/18 09:00:48;;;;;;;7.40;6.70;;;31.70;87.80;;;;;;5009723;28;20436;-91
2021/06/18 09:03:51;;;;;;;7.63;6.90;;;32.20;84.30;;;;;;5010290;28;20963;-92
2021/06/18 09:06:28;;;;;;;7.17;6.57;;;31.70;85.70;;;;;;4934622;29;20494;-92
2021/06/18 09:09:25;;;;;;;7.20;6.20;;;31.80;85.60;;;;;;4933872;29;20455;-90
2021/06/18 09:11:53;;;;;;;6.57;6.17;;;31.70;86.70;;;;;;4938224;29;20486;-91
2021/06/18 09:14:26;;;;;;;8.20;6.57;;;31.70;88.50;;;;;;5000432;28;20824;-91
2021/06/18 09:17:08;;;;;;;9.03;6.83;;;31.80;86.20;;;;;;5010797;28;20467;-91
2021/06/18 09:19:39;;;;;;;7.27;6.57;;;31.10;90.20;;;;;;5009339;28;20982;-91
2021/06/18 09:22:07;;;;;;;7.70;7.00;;;31.70;84.80;;;;;;5010438;28;20851;-91
2021/06/18 09:24:37;;;;;;;6.83;6.13;;;31.80;92.90;;;;;;5012741;28;20452;-93
2021/06/18 09:27:05;;;;;;;7.07;6.43;;;31.70;85.20;;;;;;5013943;28;20444;-92
2021/06/18 09:29:33;;;;;;;8.30;6.33;;;31.50;86.40;;;;;;5013984;28;20452;-92
2021/06/18 09:32:02;;;;;;;8.23;7.60;;;31.70;87.50;;;;;;5013912;28;20965;-91
2021/06/18 09:34:35;;;;;;;9.60;7.20;;;32.60;83.50;;;;;;5013338;28;20451;-92
2021/06/18 09:37:27;;;;;;;7.97;6.97;;;32.70;80.10;;;;;;5013621;28;20444;-92
2021/06/18 09:40:13;;;;;;;7.87;6.60;;;32.30;82.80;;;;;;5012158;28;20484;-91
2021/06/18 09:42:57;;;;;;;7.57;7.07;;;32.30;81.90;;;;;;5013565;28;20570;-91
2021/06/18 09:45:25;;;;;;;7.40;6.70;;;32.90;80.80;;;;;;5009477;28;20530;-91
2021/06/18 09:47:53;;;;;;;8.60;6.80;;;32.90;79.80;;;;;;5013553;28;20948;-88
2021/06/18 09:50:27;;;;;;;7.00;6.37;;;33.10;81.10;;;;;;5013100;28;20963;-91
2021/06/18 09:53:20;;;;;;;7.43;6.13;;;33.80;78.20;;;;;;5013193;28;20510;-90
2021/06/18 09:55:49;;;;;;;7.57;6.83;;;33.90;77.30;;;;;;5012247;28;20462;-90
2021/06/18 09:58:34;;;;;;;7.00;6.30;;;33.90;73.20;;;;;;5013342;28;20460;-93
2021/06/18 10:01:14;;;;;;;6.37;5.77;;;33.90;75.40;;;;;;5013131;28;20451;-89
2021/06/18 10:03:57;;;;;;;7.83;6.00;;;34.10;74.10;;;;;;5010076;28;20455;-91
2021/06/18 10:06:24;;;;;;;9.27;6.13;;;34.70;73.50;;;;;;5009422;28;20467;-90
2021/06/18 10:08:53;;;;;;;7.17;6.57;;;34.50;71.10;;;;;;5008578;28;20531;-91
2021/06/18 10:11:20;;;;;;;6.63;6.13;;;34.50;71.60;;;;;;5012479;28;20534;-91
2021/06/18 10:13:47;;;;;;;8.03;6.30;;;;;;;;;;5012934;28;20455;-91
2021/06/18 10:16:17;;;;;;;7.60;6.90;;;34.10;70.20;;;;;;5012332;28;20455;-85
2021/06/18 10:18:44;;;;;;;6.93;6.43;;;32.70;72.10;;;;;;5012681;28;20522;-91
2021/06/18 10:21:12;;;;;;;6.63;6.03;;;32.40;75.30;;;;;;5014147;28;20997;-91
2021/06/18 10:23:40;;;;;;;6.77;6.07;;;33.10;70.00;;;;;;5016791;28;20952;-91
2021/06/18 10:26:12;;;;;;;5.90;5.40;;;33.10;70.60;;;;;;5015788;28;20455;-90
2021/06/18 10:28:39;;;;;;;5.40;4.80;;;33.10;72.00;;;;;;5017245;28;20498;-91
2021/06/18 10:31:06;;;;;;;5.70;5.20;;;32.60;72.90;;;;;;5017172;28;20455;-91
2021/06/18 10:33:37;;;;;;;6.30;5.50;;;33.00;68.60;;;;;;5017136;28;20978;-92
2021/06/18 10:36:22;;;;;;;5.90;5.27;;;33.20;67.20;;;;;;5012758;28;21163;-91
2021/06/18 10:39:04;;;;;;;5.87;5.37;;;33.60;64.50;;;;;;5016992;28;20456;-91
2021/06/18 10:41:32;;;;;;;4.73;4.23;;;33.60;64.00;;;;;;5016465;28;20487;-88
2021/06/18 10:44:00;;;;;;;4.20;3.90;;;33.40;58.20;;;;;;5016503;28;20455;-90
2021/06/18 10:46:29;;;;;;;3.60;3.30;;;34.20;53.70;;;;;;5016637;28;20826;-92
2021/06/18 10:49:07;;;;;;;4.77;4.27;;;34.10;54.20;;;;;;5016619;28;20455;-91
2021/06/18 10:51:43;;;;;;;7.37;4.80;;;34.00;56.10;;;;;;5016683;28;20486;-90
2021/06/18 10:54:15;;;;;;;7.23;4.70;;;34.60;58.50;;;;;;5016684;28;20447;-93
2021/06/18 10:57:15;;;;;;;5.03;4.50;;;34.40;56.50;;;;;;5015759;28;20468;-94
2021/06/18 10:59:46;;;;;;;5.17;4.67;;;34.60;57.60;;;;;;5016896;28;20456;-87
2021/06/18 11:02:38;;;;;;;4.73;4.30;;;33.50;57.80;;;;;;5016454;28;21023;-88
2021/06/18 11:05:09;;;;;;;5.00;4.50;;;33.80;57.50;;;;;;5018347;28;20456;-93
2021/06/18 11:07:37;;;;;;;4.90;4.40;;;33.80;56.60;;;;;;5013025;28;20459;-88
2021/06/18 11:10:06;;;;;;;5.97;4.73;;;33.20;57.70;;;;;;5015166;28;20457;-91
2021/06/18 11:12:47;;;;;;;4.80;4.30;;;33.50;66.00;;;;;;5017049;28;20452;-92
2021/06/18 11:15:53;;;;;;;5.40;5.00;;;33.70;58.20;;;;;;5007962;28;20463;-93
2021/06/18 11:18:33;;;;;;;5.17;4.67;;;34.00;56.10;;;;;;4994112;28;20576;-91
2021/06/18 11:21:02;;;;;;;5.10;4.70;;;34.60;72.40;;;;;;4996198;28;20465;-88
2021/06/18 11:23:34;;;;;;;6.73;4.63;;;34.40;55.10;;;;;;4996524;28;20485;-94
2021/06/18 11:26:03;;;;;;;4.63;4.30;;;34.50;55.00;;;;;;4995351;28;20851;-90
2021/06/18 11:28:47;;;;;;;7.10;4.03;;;33.80;56.50;;;;;;4996263;28;21067;-93
2021/06/18 11:31:21;;;;;;;5.47;4.97;;;33.00;56.30;;;;;;4996093;28;20461;-93
2021/06/18 11:34:04;;;;;;;6.33;4.73;;;33.80;57.30;;;;;;4995310;28;20448;-93
2021/06/18 11:36:53;;;;;;;5.80;4.90;;;33.80;55.30;;;;;;4996326;28;20452;-90
2021/06/18 11:39:25;;;;;;;6.30;4.93;;;33.00;64.50;;;;;;4997027;28;20561;-92
2021/06/18 11:42:06;;;;;;;6.43;4.53;;;33.60;54.00;;;;;;4993594;28;20535;-95
2021/06/18 11:44:35;;;;;;;5.53;4.40;;;33.20;55.10;;;;;;4996365;28;20456;-92
2021/06/18 11:47:02;;;;;;;4.70;4.30;;;;;;;;;;4996490;28;20446;-86
2021/06/18 11:49:33;;;;;;;4.40;3.90;;;32.80;52.30;;;;;;4995158;28;20452;-87
2021/06/18 11:52:04;;;;;;;7.37;4.13;;;33.00;51.80;;;;;;5002439;28;21053;-87
2021/06/18 11:54:32;;;;;;;3.87;3.57;;;33.60;78.20;;;;;;4995214;28;20456;-89
2021/06/18 11:57:11;;;;;;;7.47;4.30;;;33.40;72.70;;;;;;5014535;28;20445;-84
2021/06/18 11:59:39;;;;;;;5.00;4.50;;;;;;;;;;5014692;28;20448;-89
2021/06/18 12:02:21;;;;;;;9.70;4.60;;;32.90;53.90;;;;;;5015303;28;20491;-92
2021/06/18 12:05:04;;;;;;;5.07;4.17;;;32.80;53.80;;;;;;5014695;28;20480;-90
2021/06/18 12:07:32;;;;;;;4.53;4.13;;;32.50;52.00;;;;;;5014674;28;20441;-90
2021/06/18 12:09:59;;;;;;;6.77;3.77;;;32.40;54.10;;;;;;5013229;28;20464;-87
2021/06/18 12:12:47;;;;;;;4.53;3.80;;;33.40;52.20;;;;;;5016324;28;21042;-93
2021/06/18 12:15:19;;;;;;;4.47;4.00;;;33.50;73.50;;;;;;5013733;28;20479;-87
2021/06/18 12:17:49;;;;;;;4.53;3.73;;;33.80;69.30;;;;;;5014201;28;20499;-90
2021/06/18 12:20:25;;;;;;;6.63;4.03;;;33.70;50.90;;;;;;5014238;28;20452;-92
2021/06/18 12:22:52;;;;;;;4.73;4.33;;;33.80;51.70;;;;;;5014642;28;20509;-87
2021/06/18 12:25:19;;;;;;;4.90;4.10;;;33.70;50.20;;;;;;5013412;28;20452;-89
2021/06/18 12:27:46;;;;;;;4.37;3.60;;;33.30;50.80;;;;;;5013947;28;20449;-87
2021/06/18 12:30:17;;;;;;;3.83;3.53;;;33.30;49.10;;;;;;5014720;28;20455;-91
2021/06/18 12:32:45;;;;;;;4.10;3.70;;;33.40;49.50;;;;;;5008948;28;20797;-90
2021/06/18 12:35:15;;;;;;;8.10;4.40;;;33.00;50.60;;;;;;5009855;28;20449;-91
2021/06/18 12:37:51;;;;;;;5.23;3.93;;;32.80;49.70;;;;;;4996594;28;20556;-87
2021/06/18 12:40:22;;;;;;;5.10;4.07;;;32.10;50.70;;;;;;5012850;28;20462;-88
2021/06/18 12:42:50;;;;;;;5.13;3.23;;;31.80;50.80;;;;;;5014092;28;20488;-87
2021/06/18 12:45:19;;;;;;;5.87;3.60;;;31.80;51.20;;;;;;5013655;28;20815;-90
2021/06/18 12:47:48;;;;;;;3.33;3.03;;;32.60;52.60;;;;;;5013726;28;20441;-88
2021/06/18 12:50:29;;;;;;;5.93;3.30;;;33.10;48.20;;;;;;5013770;28;20441;-91
2021/06/18 12:52:59;;;;;;;3.90;3.47;;;33.50;48.10;;;;;;5013666;28;20480;-86
2021/06/18 12:55:27;;;;;;;4.40;4.10;;;33.60;49.50;;;;;;5009615;28;20444;-88
2021/06/18 12:58:12;;;;;;;5.00;3.20;;;33.30;48.80;;;;;;5013782;28;20444;-90
2021/06/18 13:00:41;;;;;;;3.97;3.67;;;33.60;49.80;;;;;;5013758;28;20447;-91
2021/06/18 13:03:09;;;;;;;4.67;4.00;;;33.60;49.70;;;;;;5013270;28;20527;-89
2021/06/18 13:05:36;;;;;;;6.33;3.70;;;33.40;49.00;;;;;;5013595;28;20458;-89
2021/06/18 13:08:18;;;;;;;5.43;4.20;;;33.30;49.70;;;;;;5013599;28;20818;-87
2021/06/18 13:10:45;;;;;;;4.43;3.93;;;33.50;48.60;;;;;;5012006;28;20456;-88
2021/06/18 13:13:21;;;;;;;4.77;4.23;;;33.90;51.30;;;;;;5013336;28;20456;-90
2021/06/18 13:15:48;;;;;;;4.67;3.40;;;34.00;48.70;;;;;;5013243;28;20452;-90
2021/06/18 13:18:16;;;;;;;4.20;3.33;;;34.30;48.50;;;;;;5013171;28;20480;-87
2021/06/18 13:20:43;;;;;;;4.20;3.00;;;;;;;;;;5013317;28;20876;-88
2021/06/18 13:23:28;;;;;;;3.37;3.07;;;33.90;63.10;;;;;;5010469;28;20495;-89
2021/06/18 13:26:09;;;;;;;6.37;3.80;;;33.90;45.10;;;;;;5007207;28;20526;-86
2021/06/18 13:28:41;;;;;;;9.67;3.87;;;34.00;45.70;;;;;;5010564;28;20440;-90
2021/06/18 13:31:11;;;;;;;5.00;3.30;;;34.50;48.00;;;;;;5013332;28;20889;-87
2021/06/18 13:33:40;;;;;;;5.13;3.00;;;34.50;48.50;;;;;;5013129;28;20808;-89
2021/06/18 13:36:07;;;;;;;5.80;3.07;;;;;;;;;;5013078;28;20547;-88
2021/06/18 13:38:36;;;;;;;5.23;3.30;;;34.40;44.20;;;;;;5013165;28;20776;-92
2021/06/18 13:41:03;;;;;;;3.83;3.20;;;34.20;58.00;;;;;;5007695;28;20448;-89
2021/06/18 13:43:30;;;;;;;5.53;3.60;;;34.30;64.00;;;;;;5013252;28;20491;-88
2021/06/18 13:45:58;;;;;;;3.90;3.20;;;34.00;71.40;;;;;;5013560;28;20461;-83
2021/06/18 13:48:25;;;;;;;4.67;3.33;;;34.00;46.30;;;;;;5012799;28;20452;-89
2021/06/18 13:50:53;;;;;;;6.77;3.70;;;;;;;;;;5007729;28;20452;-88